createdAt,value
2022-08-15T00:00:47.986Z,100416.49
2022-08-15T00:03:19.599Z,100414.17
2022-08-15T00:08:51.045Z,100410.94
2022-08-15T00:11:02.577Z,100408.15
2022-08-15T00:13:19.441Z,100406.7
2022-08-15T00:15:46.860Z,100404.04
2022-08-15T00:18:16.887Z,100400.94
2022-08-15T00:20:50.123Z,100395.82
2022-08-15T00:23:17.370Z,100386.94
2022-08-15T00:25:48.340Z,100378.83
2022-08-15T00:28:19.455Z,100372.55
2022-08-15T00:30:57.663Z,100369.48
2022-08-15T00:33:26.999Z,100368.89
2022-08-15T00:36:03.318Z,100363.56
2022-08-15T00:38:21.661Z,100362.95
2022-08-15T00:40:59.800Z,100361.61
2022-08-15T00:43:15.718Z,100361.36
2022-08-15T00:45:45.927Z,100357.59000000001
2022-08-15T00:48:25.981Z,100359.31
2022-08-15T00:50:44.883Z,100358.47
2022-08-15T00:53:15.319Z,100355.16
2022-08-15T00:58:34.841Z,100357.73000000001
2022-08-15T01:00:47.473Z,100362.13
2022-08-15T01:03:24.421Z,100360.97
2022-08-15T01:08:16.717Z,100357.09000000001
2022-08-15T01:13:19.184Z,100349.36
2022-08-15T01:15:45.656Z,100357.37000000001
2022-08-15T01:18:34.571Z,100360.44
2022-08-15T01:20:45.492Z,100368.73000000001
2022-08-15T01:23:22.209Z,100360.90000000001
2022-08-15T01:26:42.239Z,100350.64
2022-08-15T01:28:18.175Z,100348.1
2022-08-15T01:33:16.934Z,100338.93000000001
2022-08-15T01:38:38.047Z,100341.11
2022-08-15T01:40:56.203Z,100345.09000000001
2022-08-15T01:43:22.624Z,100344.81
2022-08-15T01:48:26.117Z,100342.88
2022-08-15T01:50:49.666Z,100340.42
2022-08-15T01:53:22.695Z,100338.22
2022-08-15T01:55:53.222Z,100337.0
2022-08-15T01:58:15.799Z,100336.6
2022-08-15T02:00:50.209Z,100338.97
2022-08-15T02:03:20.710Z,100339.4
2022-08-15T02:05:45.122Z,100336.81
2022-08-15T02:13:17.512Z,100329.58
2022-08-15T02:18:19.460Z,100327.15
2022-08-15T02:23:16.825Z,100314.42
2022-08-15T02:25:47.114Z,100316.62
2022-08-15T02:28:35.107Z,100316.35
2022-08-15T02:30:46.181Z,100316.88
2022-08-15T02:33:15.444Z,100316.0
2022-08-15T02:38:19.531Z,100313.17
2022-08-15T02:40:51.605Z,100320.22
2022-08-15T02:43:16.219Z,100315.7
2022-08-15T02:45:57.138Z,100314.04
2022-08-15T02:48:27.836Z,100309.69
2022-08-15T02:50:45.989Z,100303.91
2022-08-15T02:53:18.331Z,100309.40000000001
2022-08-15T02:55:47.909Z,100309.69
2022-08-15T02:58:28.666Z,100308.76
2022-08-15T03:00:45.238Z,100308.33
2022-08-15T03:03:17.351Z,100302.09999999999
2022-08-15T03:05:54.791Z,100298.11
2022-08-15T03:08:20.703Z,100292.11
2022-08-15T03:10:44.924Z,100292.69
2022-08-15T03:13:16.645Z,100294.84
2022-08-15T03:15:57.845Z,100296.51
2022-08-15T03:18:15.715Z,100299.23999999999
2022-08-15T03:20:50.137Z,100298.44
2022-08-15T03:23:15.085Z,100303.47
2022-08-15T03:25:55.434Z,100296.14
2022-08-15T03:28:27.672Z,100294.08
2022-08-15T03:30:45.175Z,100292.78
2022-08-15T03:33:16.228Z,100293.39
2022-08-15T03:35:47.938Z,100295.81
2022-08-15T03:38:15.371Z,100297.13
2022-08-15T03:40:48.597Z,100289.76
2022-08-15T03:43:19.099Z,100285.06
2022-08-15T03:45:49.717Z,100289.08
2022-08-15T03:48:21.069Z,100291.88
2022-08-15T03:53:15.995Z,100291.95999999999
2022-08-15T03:55:54.457Z,100289.51
2022-08-15T03:58:32.716Z,100289.84
2022-08-15T04:00:51.601Z,100288.19
2022-08-15T04:03:17.447Z,100285.08
2022-08-15T04:05:49.940Z,100278.92
2022-08-15T04:10:45.837Z,100276.19
2022-08-15T04:13:15.687Z,100275.01999999999
2022-08-15T04:15:45.766Z,100275.2
2022-08-15T04:18:44.368Z,100276.45999999999
2022-08-15T04:20:44.980Z,100275.3
2022-08-15T04:23:15.089Z,100280.11
2022-08-15T04:28:28.483Z,100271.42
2022-08-15T04:30:47.928Z,100264.59
2022-08-15T04:33:18.759Z,100268.22
2022-08-15T04:35:47.395Z,100268.05
2022-08-15T04:38:16.557Z,100260.69
2022-08-15T04:41:18.779Z,100263.7
2022-08-15T04:43:18.826Z,100264.78
2022-08-15T04:45:45.194Z,100267.69
2022-08-15T04:48:20.251Z,100273.06999999999
2022-08-15T04:50:48.370Z,100266.14
2022-08-15T04:55:51.352Z,100264.97
2022-08-15T04:58:41.557Z,100261.61
2022-08-15T05:00:54.295Z,100259.39
2022-08-15T05:03:17.773Z,100257.79
2022-08-15T05:05:47.501Z,100264.59
2022-08-15T05:08:17.193Z,100263.72
2022-08-15T05:10:51.323Z,100263.67
2022-08-15T05:13:17.758Z,100260.47
2022-08-15T05:15:48.391Z,100261.42
2022-08-15T05:18:17.361Z,100263.89
2022-08-15T05:20:45.633Z,100267.42
2022-08-15T05:23:16.771Z,100269.44
2022-08-15T05:25:50.412Z,100267.31
2022-08-15T05:28:29.347Z,100269.11
2022-08-15T05:30:45.056Z,100270.98
2022-08-15T05:33:19.256Z,100271.59
2022-08-15T05:35:51.789Z,100271.8
2022-08-15T05:38:22.221Z,100273.01999999999
2022-08-15T05:40:55.659Z,100274.34
2022-08-15T05:43:24.441Z,100272.64
2022-08-15T05:45:51.846Z,100274.79
2022-08-15T05:48:20.093Z,100271.3
2022-08-15T05:55:59.099Z,100261.99
2022-08-15T05:58:37.285Z,100257.89
2022-08-15T06:00:50.054Z,100255.61
2022-08-15T06:03:23.130Z,100256.11
2022-08-15T06:05:49.019Z,100258.94
2022-08-15T06:08:50.451Z,100258.98
2022-08-15T06:10:51.255Z,100257.39
2022-08-15T06:13:20.544Z,100257.73000000001
2022-08-15T06:15:55.664Z,100260.1
2022-08-15T06:18:18.658Z,100267.86
2022-08-15T06:20:58.619Z,100272.83
2022-08-15T06:23:37.137Z,100272.01
2022-08-15T06:26:02.921Z,100267.66
2022-08-15T06:28:53.926Z,100270.78
2022-08-15T06:30:51.345Z,100275.05
2022-08-15T06:33:55.703Z,100273.83
2022-08-15T06:36:00.244Z,100271.26
2022-08-15T06:38:31.047Z,100270.34999999999
2022-08-15T06:40:52.820Z,100269.23000000001
2022-08-15T06:43:15.461Z,100273.33
2022-08-15T06:45:49.625Z,100270.70999999999
2022-08-15T06:48:55.555Z,100267.26999999999
2022-08-15T06:50:48.048Z,100264.23
2022-08-15T06:53:21.775Z,100260.31
2022-08-15T06:55:55.130Z,100256.62
2022-08-15T06:58:53.156Z,100259.95
2022-08-15T07:00:53.754Z,100255.62999999999
2022-08-15T07:03:33.069Z,100250.59
2022-08-15T07:05:53.245Z,100256.51000000001
2022-08-15T07:08:22.197Z,100257.95000000001
2022-08-15T07:10:49.221Z,100257.7
2022-08-15T07:13:20.236Z,100257.93
2022-08-15T07:15:52.470Z,100264.17
2022-08-15T07:18:22.762Z,100259.74
2022-08-15T07:20:45.783Z,100263.86
2022-08-15T07:23:18.670Z,100258.69
2022-08-15T07:25:48.502Z,100257.9
2022-08-15T07:28:18.827Z,100256.81
2022-08-15T07:30:53.965Z,100261.1
2022-08-15T07:33:34.947Z,100266.31
2022-08-15T07:35:58.576Z,100263.13
2022-08-15T07:38:29.137Z,100263.93000000001
2022-08-15T07:40:56.301Z,100260.11
2022-08-15T07:43:26.728Z,100264.21
2022-08-15T07:45:47.021Z,100258.62
2022-08-15T07:48:22.078Z,100253.04
2022-08-15T07:50:57.765Z,100257.64
2022-08-15T07:53:18.728Z,100263.09
2022-08-15T07:58:24.498Z,100274.49
2022-08-15T08:00:52.671Z,100272.94
2022-08-15T08:03:20.556Z,100268.72
2022-08-15T08:05:56.335Z,100260.35
2022-08-15T08:08:44.792Z,100261.0
2022-08-15T08:10:50.663Z,100256.37000000001
2022-08-15T08:13:38.227Z,100255.81
2022-08-15T08:15:54.679Z,100260.13
2022-08-15T08:18:27.008Z,100264.73999999999
2022-08-15T08:20:51.890Z,100267.62999999999
2022-08-15T08:23:21.983Z,100262.89
2022-08-15T08:26:10.974Z,100265.77
2022-08-15T08:28:34.688Z,100262.8
2022-08-15T08:30:53.241Z,100267.74
2022-08-15T08:33:28.382Z,100267.94
2022-08-15T08:35:53.754Z,100268.39
2022-08-15T08:39:04.030Z,100269.93
2022-08-15T08:41:11.923Z,100274.56
2022-08-15T08:43:27.926Z,100277.53
2022-08-15T08:45:53.905Z,100279.74
2022-08-15T08:48:31.499Z,100286.31
2022-08-15T08:50:53.976Z,100291.89
2022-08-15T08:53:30.390Z,100293.40999999999
2022-08-15T08:55:50.367Z,100293.23000000001
2022-08-15T08:58:36.982Z,100296.34999999999
2022-08-15T09:00:48.248Z,100290.11
2022-08-15T09:03:18.886Z,100295.26
2022-08-15T09:08:21.412Z,100300.9
2022-08-15T09:10:50.867Z,100305.7
2022-08-15T09:13:27.654Z,100306.58
2022-08-15T09:15:54.284Z,100300.81999999999
2022-08-15T09:18:18.315Z,100295.7
2022-08-15T09:20:46.732Z,100289.72
2022-08-15T09:23:15.866Z,100292.76
2022-08-15T09:25:55.176Z,100293.46
2022-08-15T09:28:28.748Z,100294.61
2022-08-15T09:30:49.512Z,100296.81
2022-08-15T09:33:30.302Z,100299.11
2022-08-15T09:36:04.967Z,100298.20999999999
2022-08-15T09:38:31.596Z,100295.61
2022-08-15T09:41:12.777Z,100293.11
2022-08-15T09:43:33.453Z,100291.79000000001
2022-08-15T09:46:02.421Z,100295.17
2022-08-15T09:48:34.940Z,100301.75
2022-08-15T09:51:05.204Z,100303.3
2022-08-15T09:53:52.624Z,100304.35
2022-08-15T09:55:54.224Z,100303.03
2022-08-15T09:58:20.401Z,100294.75
2022-08-15T10:00:57.727Z,100294.56
2022-08-15T10:03:21.717Z,100296.45000000001
2022-08-15T10:05:56.600Z,100296.66
2022-08-15T10:08:29.485Z,100301.17
2022-08-15T10:10:51.302Z,100301.9
2022-08-15T10:13:30.307Z,100311.01999999999
2022-08-15T10:15:51.146Z,100309.74
2022-08-15T10:18:36.968Z,100314.59
2022-08-15T10:20:51.899Z,100317.13
2022-08-15T10:23:16.236Z,100321.38
2022-08-15T10:25:48.167Z,100323.49
2022-08-15T10:28:38.182Z,100329.1
2022-08-15T10:31:02.183Z,100325.27
2022-08-15T10:33:27.145Z,100325.12000000001
2022-08-15T10:35:45.967Z,100327.86
2022-08-15T10:38:31.124Z,100324.14
2022-08-15T10:40:53.270Z,100325.0
2022-08-15T10:43:54.779Z,100325.34000000001
2022-08-15T10:45:48.044Z,100321.73
2022-08-15T10:48:43.971Z,100321.15
2022-08-15T10:50:53.440Z,100325.12000000001
2022-08-15T10:53:27.870Z,100319.44
2022-08-15T10:55:56.797Z,100326.59
2022-08-15T10:58:19.782Z,100330.16
2022-08-15T11:00:52.186Z,100332.25
2022-08-15T11:03:21.200Z,100333.51
2022-08-15T11:05:54.555Z,100338.06
2022-08-15T11:08:17.945Z,100333.39
2022-08-15T11:10:46.051Z,100327.37
2022-08-15T11:13:17.691Z,100326.15
2022-08-15T11:15:54.724Z,100325.89
2022-08-15T11:18:24.317Z,100324.01999999999
2022-08-15T11:20:52.880Z,100324.62000000001
2022-08-15T11:23:29.962Z,100319.54
2022-08-15T11:25:55.620Z,100324.05
2022-08-15T11:28:37.260Z,100323.55
2022-08-15T11:30:46.429Z,100323.83
2022-08-15T11:33:21.518Z,100331.56
2022-08-15T11:35:46.232Z,100331.72
2022-08-15T11:38:20.637Z,100324.7
2022-08-15T11:40:50.344Z,100326.92
2022-08-15T11:43:17.069Z,100322.02
2022-08-15T11:45:51.078Z,100319.26
2022-08-15T11:48:21.029Z,100324.87999999999
2022-08-15T11:50:56.694Z,100329.49
2022-08-15T11:53:15.206Z,100333.29
2022-08-15T11:55:48.015Z,100332.62
2022-08-15T11:58:21.237Z,100331.76
2022-08-15T12:00:48.988Z,100332.20999999999
2022-08-15T12:06:08.285Z,100331.7
2022-08-15T12:08:28.651Z,100343.81
2022-08-15T12:10:55.231Z,100339.34000000001
2022-08-15T12:13:12.061Z,100332.79
2022-08-15T12:13:33.322Z,100337.8
2022-08-15T12:15:46.185Z,100343.62999999999
2022-08-15T12:18:49.586Z,100343.16
2022-08-15T12:20:59.284Z,100346.24
2022-08-15T12:23:21.447Z,100340.45
2022-08-15T12:25:54.176Z,100341.66
2022-08-15T12:28:23.788Z,100341.44
2022-08-15T12:30:46.474Z,100345.34
2022-08-15T12:33:15.534Z,100344.83
2022-08-15T12:36:01.446Z,100345.34
2022-08-15T12:38:15.509Z,100345.5
2022-08-15T12:40:59.347Z,100344.7
2022-08-15T12:43:17.459Z,100339.76
2022-08-15T12:45:45.496Z,100339.70000000001
2022-08-15T12:48:26.556Z,100342.04999999999
2022-08-15T12:50:45.224Z,100342.94
2022-08-15T12:53:15.872Z,100342.69
2022-08-15T12:55:47.687Z,100340.78
2022-08-15T12:58:17.291Z,100339.28
2022-08-15T13:03:28.334Z,100344.16
2022-08-15T13:06:02.359Z,100339.47
2022-08-15T13:08:27.239Z,100343.94
2022-08-15T13:11:01.119Z,100339.95
2022-08-15T13:15:45.539Z,100343.96
2022-08-15T13:18:22.662Z,100336.44
2022-08-15T13:20:57.601Z,100334.77
2022-08-15T13:23:25.184Z,100338.84000000001
2022-08-15T13:25:47.467Z,100336.03
2022-08-15T13:28:15.795Z,100332.19
2022-08-15T13:31:01.439Z,100331.56999999999
2022-08-15T13:33:17.257Z,100328.03
2022-08-15T13:35:58.619Z,100328.9
2022-08-15T13:38:23.453Z,100330.69
2022-08-15T13:40:51.339Z,100332.92
2022-08-15T13:43:15.267Z,100329.35
2022-08-15T13:45:56.721Z,100330.33
2022-08-15T13:48:25.250Z,100326.28
2022-08-15T13:50:45.633Z,100329.94
2022-08-15T13:53:15.429Z,100332.4
2022-08-15T13:55:45.870Z,100332.06
2022-08-15T13:58:20.413Z,100328.91
2022-08-15T14:00:57.138Z,100334.22
2022-08-15T14:03:19.506Z,100331.06
2022-08-15T14:05:45.431Z,100334.99
2022-08-15T14:08:27.151Z,100340.25
2022-08-15T14:10:59.346Z,100332.42
2022-08-15T14:13:17.970Z,100328.68999999999
2022-08-15T14:16:34.037Z,100329.94
2022-08-15T14:18:48.482Z,100327.57
2022-08-15T14:20:45.642Z,100334.1
2022-08-15T14:23:15.832Z,100334.74
2022-08-15T14:27:09.257Z,100338.37
2022-08-15T14:33:16.017Z,100345.59000000001
2022-08-15T14:35:45.531Z,100346.48
2022-08-15T14:38:20.908Z,100349.92
2022-08-15T14:40:45.850Z,100351.59
2022-08-15T14:43:17.918Z,100356.5
2022-08-15T14:46:30.970Z,100361.8
2022-08-15T14:48:24.130Z,100362.81
2022-08-15T14:50:52.453Z,100358.01
2022-08-15T14:53:15.827Z,100358.17
2022-08-15T14:55:47.802Z,100359.74
2022-08-15T15:00:46.003Z,100365.32999999999
2022-08-15T15:03:17.691Z,100378.47
2022-08-15T15:06:07.183Z,100381.69
2022-08-15T15:08:19.958Z,100387.78
2022-08-15T15:13:15.842Z,100399.04000000001
2022-08-15T15:16:13.617Z,100396.70999999999
2022-08-15T15:18:39.170Z,100393.44
2022-08-15T15:20:46.787Z,100389.58
2022-08-15T15:23:15.380Z,100394.26
2022-08-15T15:25:45.594Z,100394.53
2022-08-15T15:28:35.067Z,100387.98000000001
2022-08-15T15:30:45.515Z,100386.15999999999
2022-08-15T15:33:15.502Z,100388.58
2022-08-15T15:35:45.364Z,100392.21
2022-08-15T15:38:37.774Z,100396.0
2022-08-15T15:40:46.436Z,100404.53
2022-08-15T15:43:15.322Z,100405.88
2022-08-15T15:45:45.434Z,100409.69
2022-08-15T15:48:27.561Z,100415.08
2022-08-15T15:50:48.448Z,100409.68000000001
2022-08-15T15:53:19.792Z,100405.03
2022-08-15T15:55:45.761Z,100397.02
2022-08-15T15:58:59.715Z,100402.91
2022-08-15T16:00:47.822Z,100401.81
2022-08-15T16:03:20.698Z,100394.93
2022-08-15T16:06:03.918Z,100395.03
2022-08-15T16:08:31.941Z,100391.01000000001
2022-08-15T16:10:51.762Z,100390.75
2022-08-15T16:13:20.262Z,100392.36
2022-08-15T16:15:52.633Z,100394.36
2022-08-15T16:18:25.361Z,100400.34000000001
2022-08-15T16:20:49.190Z,100402.95
2022-08-15T16:23:23.780Z,100407.76
2022-08-15T16:28:21.977Z,100416.56
2022-08-15T16:30:52.439Z,100414.75
2022-08-15T16:33:21.753Z,100413.48000000001
2022-08-15T16:35:52.979Z,100412.83
2022-08-15T16:39:03.459Z,100412.62000000001
2022-08-15T16:41:00.145Z,100411.51999999999
2022-08-15T16:43:21.491Z,100408.98
2022-08-15T16:45:59.571Z,100407.24
2022-08-15T16:48:25.773Z,100407.53
2022-08-15T16:50:57.518Z,100410.74
2022-08-15T16:53:22.407Z,100413.44
2022-08-15T16:55:54.429Z,100412.79
2022-08-15T16:58:36.001Z,100417.76999999999
2022-08-15T17:00:56.024Z,100425.09
2022-08-15T17:03:31.748Z,100425.72
2022-08-15T17:05:55.609Z,100430.47
2022-08-15T17:08:23.113Z,100421.78
2022-08-15T17:10:56.513Z,100426.70000000001
2022-08-15T17:13:31.683Z,100426.11
2022-08-15T17:15:51.961Z,100428.94
2022-08-15T17:18:27.066Z,100436.84
2022-08-15T17:20:53.495Z,100435.41
2022-08-15T17:23:21.965Z,100432.7
2022-08-15T17:26:00.865Z,100433.95000000001
2022-08-15T17:28:34.627Z,100432.81
2022-08-15T17:30:57.075Z,100434.74
2022-08-15T17:33:34.718Z,100437.77
2022-08-15T17:38:30.663Z,100440.73
2022-08-15T17:40:49.840Z,100443.95
2022-08-15T17:43:23.728Z,100442.85
2022-08-15T17:48:29.871Z,100444.09000000001
2022-08-15T17:50:59.308Z,100441.14
2022-08-15T17:53:21.051Z,100438.67
2022-08-15T17:55:53.706Z,100437.66
2022-08-15T17:58:24.221Z,100437.56
2022-08-15T18:00:45.393Z,100438.64
2022-08-15T18:03:15.478Z,100436.1
2022-08-15T18:08:21.557Z,100427.36
2022-08-15T18:10:52.554Z,100425.81
2022-08-15T18:13:17.823Z,100422.77
2022-08-15T18:16:01.637Z,100427.70000000001
2022-08-15T18:18:20.952Z,100423.86
2022-08-15T18:20:48.204Z,100424.25
2022-08-15T18:23:20.708Z,100424.58
2022-08-15T18:28:20.507Z,100430.55
2022-08-15T18:30:46.301Z,100435.88
2022-08-15T18:33:27.083Z,100437.97
2022-08-15T18:38:20.110Z,100449.45
2022-08-15T18:41:00.289Z,100453.33
2022-08-15T18:43:16.775Z,100458.59
2022-08-15T18:45:49.851Z,100463.4
2022-08-15T18:48:33.604Z,100471.77
2022-08-15T18:50:58.203Z,100478.38
2022-08-15T18:53:19.765Z,100474.67
2022-08-15T18:58:17.702Z,100483.17
2022-08-15T19:00:56.448Z,100481.61
2022-08-15T19:03:19.404Z,100485.78
2022-08-15T19:05:48.129Z,100490.64
2022-08-15T19:08:37.942Z,100492.22
2022-08-15T19:10:53.289Z,100493.64
2022-08-15T19:13:24.467Z,100498.14
2022-08-15T19:15:51.745Z,100501.28
2022-08-15T19:18:38.425Z,100504.24
2022-08-15T19:20:47.126Z,100505.08
2022-08-15T19:23:15.481Z,100508.83
2022-08-15T19:28:39.939Z,100511.11
2022-08-15T19:30:52.836Z,100514.06
2022-08-15T19:33:24.071Z,100512.03
2022-08-15T19:36:00.346Z,100512.09
2022-08-15T19:38:28.246Z,100511.73999999999
2022-08-15T19:40:56.079Z,100510.22
2022-08-15T19:43:27.102Z,100515.49
2022-08-15T19:45:59.294Z,100520.84
2022-08-15T19:48:33.717Z,100525.17
2022-08-15T19:51:10.875Z,100527.87
2022-08-15T19:53:41.699Z,100530.3
2022-08-15T19:55:55.901Z,100524.41
2022-08-15T19:58:35.643Z,100526.53
2022-08-15T20:00:49.365Z,100518.62999999999
2022-08-15T20:03:22.480Z,100518.19
2022-08-15T20:08:36.425Z,100517.83
2022-08-15T20:10:58.359Z,100516.52
2022-08-15T20:20:58.356Z,100513.95
2022-08-15T20:23:41.152Z,100517.94
2022-08-15T20:25:50.075Z,100518.40999999999
2022-08-15T20:30:47.589Z,100525.66
2022-08-15T20:33:22.458Z,100530.76999999999
2022-08-15T20:35:55.718Z,100530.88
2022-08-15T20:40:53.535Z,100525.97
2022-08-15T20:43:20.619Z,100526.34000000001
2022-08-15T20:46:00.653Z,100530.6
2022-08-15T20:48:42.023Z,100529.21
2022-08-15T20:50:50.773Z,100535.22
2022-08-15T20:53:17.266Z,100533.78
2022-08-15T20:55:50.104Z,100537.23
2022-08-15T20:58:35.426Z,100537.05
2022-08-15T21:01:16.872Z,100532.69
2022-08-15T21:04:01.375Z,100532.67
2022-08-15T21:06:00.919Z,100528.91
2022-08-15T21:10:52.588Z,100529.96
2022-08-15T21:13:24.515Z,100536.11
2022-08-15T21:16:05.657Z,100540.48
2022-08-15T21:18:29.549Z,100542.24
2022-08-15T21:21:00.595Z,100542.28
2022-08-15T21:23:22.207Z,100541.06
2022-08-15T21:25:49.991Z,100537.18000000001
2022-08-15T21:31:00.595Z,100532.31
2022-08-15T21:33:35.318Z,100535.76000000001
2022-08-15T21:35:45.564Z,100536.84
2022-08-15T21:38:35.292Z,100534.64
2022-08-15T21:40:49.366Z,100537.22
2022-08-15T21:43:35.393Z,100536.65
2022-08-15T21:45:46.241Z,100534.7
2022-08-15T21:48:35.435Z,100534.45
2022-08-15T21:50:48.849Z,100537.26000000001
2022-08-15T21:53:26.927Z,100538.22
2022-08-15T21:55:46.785Z,100540.09
2022-08-15T22:00:56.986Z,100542.89
2022-08-15T22:03:21.773Z,100546.12
2022-08-15T22:05:52.462Z,100548.44
2022-08-15T22:10:47.446Z,100548.0
2022-08-15T22:13:16.966Z,100547.52
2022-08-15T22:15:45.757Z,100549.22
2022-08-15T22:20:46.225Z,100546.65
2022-08-15T22:23:18.255Z,100545.25
2022-08-15T22:25:58.729Z,100544.12
2022-08-15T22:30:46.641Z,100542.38
2022-08-15T22:33:19.643Z,100543.22
2022-08-15T22:35:46.107Z,100536.03
2022-08-15T22:40:47.385Z,100537.58
2022-08-15T22:43:21.707Z,100541.28
2022-08-15T22:45:51.835Z,100538.69
2022-08-15T22:50:55.540Z,100534.16
2022-08-15T22:53:15.603Z,100534.77
2022-08-15T22:55:45.973Z,100535.94
2022-08-15T23:00:51.144Z,100536.04000000001
2022-08-15T23:03:16.090Z,100535.77
2022-08-15T23:05:50.949Z,100535.69
2022-08-15T23:08:20.322Z,100534.38
2022-08-15T23:10:51.799Z,100537.48000000001
2022-08-15T23:13:22.211Z,100534.87
2022-08-15T23:15:52.653Z,100537.19
2022-08-15T23:18:20.075Z,100534.38
2022-08-15T23:23:21.178Z,100528.33
2022-08-15T23:25:50.811Z,100529.69
2022-08-15T23:28:29.599Z,100528.5
2022-08-15T23:33:28.097Z,100530.22
2022-08-15T23:35:45.845Z,100526.58
2022-08-15T23:38:18.904Z,100530.38
2022-08-15T23:43:15.955Z,100531.91
2022-08-15T23:45:45.924Z,100532.34
2022-08-15T23:48:28.470Z,100534.01
2022-08-15T23:50:45.766Z,100533.22
2022-08-15T23:53:31.315Z,100531.51000000001
2022-08-15T23:55:59.010Z,100534.89
2022-08-15T23:58:19.104Z,100531.09
